Time;durP1;ratioP1;P1;durP2;ratioP2;P2;SDS_P1;SDS_P2;PMS_P1;PMS_P2;Temp;Humidity;BMP_temperature;BMP_pressure;BME280_temperature;BME280_humidity;BME280_pressure;Samples;Min_cycle;Max_cycle;Signal;HPM_P1;HPM_P2
2022/10/02 00:00:05;;;;;;;13.75;5.68;;;13.90;99.90;;;;;;4927860;29;20123;-84
2022/10/02 00:02:46;;;;;;;15.05;4.03;;;13.90;99.90;;;;;;4929192;29;20096;-85
2022/10/02 00:05:34;;;;;;;8.25;2.78;;;13.90;99.90;;;;;;4928003;29;20458;-85
2022/10/02 00:08:25;;;;;;;16.58;5.93;;;13.90;99.90;;;;;;4910362;29;20040;-85
2022/10/02 00:10:56;;;;;;;17.52;4.53;;;13.90;99.90;;;;;;4909181;29;20499;-85
2022/10/02 00:13:36;;;;;;;15.30;3.30;;;13.90;99.90;;;;;;4928059;29;20118;-85
2022/10/02 00:16:03;;;;;;;;;;;13.90;99.90;;;;;;4928278;29;20119;-86
2022/10/02 00:18:33;;;;;;;18.65;4.82;;;13.90;99.90;;;;;;4929074;29;19907;-85
2022/10/02 00:21:14;;;;;;;19.80;5.50;;;13.90;99.90;;;;;;4927536;29;20072;-85
2022/10/02 00:23:47;;;;;;;11.27;2.30;;;14.00;99.90;;;;;;4910119;29;20064;-85
2022/10/02 00:26:28;;;;;;;10.27;4.25;;;13.90;99.90;;;;;;4909006;29;20061;-86
2022/10/02 00:29:20;;;;;;;15.25;6.70;;;13.90;99.90;;;;;;4893461;29;20572;-85
2022/10/02 00:32:05;;;;;;;19.80;6.68;;;13.90;99.90;;;;;;4895346;29;20051;-86
2022/10/02 00:34:38;;;;;;;19.08;5.22;;;13.90;99.90;;;;;;4932369;29;20087;-85
2022/10/02 00:37:28;;;;;;;14.88;4.65;;;13.90;99.90;;;;;;4931090;29;20047;-85
2022/10/02 00:40:24;;;;;;;20.23;5.53;;;13.90;99.90;;;;;;4932317;29;20060;-86
2022/10/02 00:42:53;;;;;;;16.08;6.13;;;13.90;99.90;;;;;;4902987;29;20033;-85
2022/10/02 00:45:31;;;;;;;15.65;5.65;;;13.90;99.90;;;;;;4911870;29;20073;-85
2022/10/02 00:47:59;;;;;;;14.68;5.55;;;13.90;99.90;;;;;;4896241;29;20032;-85
2022/10/02 00:50:37;;;;;;;6.88;3.50;;;13.90;99.90;;;;;;4911860;29;20131;-85
2022/10/02 00:53:41;;;;;;;22.55;4.75;;;13.90;99.90;;;;;;4926337;29;20111;-85
2022/10/02 00:56:25;;;;;;;20.27;4.38;;;13.90;99.90;;;;;;4932040;29;20481;-85
2022/10/02 00:59:09;;;;;;;14.95;5.50;;;13.90;99.90;;;;;;4931802;29;20383;-85
2022/10/02 01:01:41;;;;;;;20.73;6.00;;;13.90;99.90;;;;;;4930890;29;20056;-85
2022/10/02 01:04:31;;;;;;;31.52;6.57;;;13.90;99.90;;;;;;4932035;29;20472;-86
2022/10/02 01:06:58;;;;;;;13.80;3.60;;;13.90;99.90;;;;;;4905422;29;20066;-86
2022/10/02 01:09:25;;;;;;;17.35;4.22;;;13.90;99.90;;;;;;4896187;29;20031;-86
2022/10/02 01:11:51;;;;;;;16.42;2.95;;;13.90;99.90;;;;;;4900580;29;20032;-86
2022/10/02 01:14:17;;;;;;;19.90;5.28;;;13.90;99.90;;;;;;4931365;29;20055;-86
2022/10/02 01:16:44;;;;;;;15.93;6.20;;;13.90;99.90;;;;;;4914815;29;20020;-86
2022/10/02 01:19:28;;;;;;;15.50;4.47;;;13.90;99.90;;;;;;4914393;29;20032;-86
2022/10/02 01:22:26;;;;;;;16.40;4.28;;;13.90;99.90;;;;;;4929709;29;20044;-86
2022/10/02 01:24:56;;;;;;;14.27;4.60;;;13.90;99.90;;;;;;4929995;29;20048;-86
2022/10/02 01:27:23;;;;;;;9.85;4.75;;;13.90;99.90;;;;;;4931462;29;20032;-86
2022/10/02 01:30:06;;;;;;;24.63;5.00;;;13.90;99.90;;;;;;4930095;29;20127;-86
2022/10/02 01:32:35;;;;;;;18.05;4.68;;;13.90;99.90;;;;;;4931038;29;20111;-85
2022/10/02 01:35:01;;;;;;;28.23;4.60;;;13.90;99.90;;;;;;4914073;29;20032;-85
2022/10/02 01:37:31;;;;;;;19.13;4.45;;;13.90;99.90;;;;;;4929906;29;20044;-85
2022/10/02 01:40:04;;;;;;;10.43;4.43;;;13.90;99.90;;;;;;4931206;29;20126;-86
2022/10/02 01:42:30;;;;;;;10.77;4.45;;;13.90;99.90;;;;;;4931242;29;20036;-85
2022/10/02 01:44:56;;;;;;;24.80;5.65;;;13.90;99.90;;;;;;4928430;29;20142;-86
2022/10/02 01:47:42;;;;;;;13.98;5.55;;;13.90;99.90;;;;;;4929494;29;20040;-85
2022/10/02 01:50:22;;;;;;;9.45;4.00;;;13.90;99.90;;;;;;4930998;29;20100;-85
2022/10/02 01:52:54;;;;;;;;;;;13.90;99.90;;;;;;4930195;29;20040;-86
2022/10/02 01:55:47;;;;;;;9.82;3.22;;;13.90;99.90;;;;;;4930655;29;19918;-86
2022/10/02 01:58:38;;;;;;;25.23;6.65;;;13.90;99.90;;;;;;4929780;29;20152;-86
2022/10/02 02:01:22;;;;;;;16.77;4.22;;;13.90;99.90;;;;;;4929251;29;20047;-86
2022/10/02 02:04:16;;;;;;;14.63;4.45;;;13.90;99.90;;;;;;4929498;29;20029;-86
2022/10/02 02:06:42;;;;;;;13.07;4.38;;;13.90;99.90;;;;;;4914998;29;20028;-86
2022/10/02 02:09:26;;;;;;;14.27;5.25;;;13.90;99.90;;;;;;4930682;29;20028;-86
2022/10/02 02:12:24;;;;;;;13.50;4.35;;;13.90;99.90;;;;;;4930872;29;20036;-86
2022/10/02 02:15:00;;;;;;;18.48;5.60;;;13.90;99.90;;;;;;4928829;29;20497;-86
2022/10/02 02:17:29;;;;;;;19.92;6.20;;;13.90;99.90;;;;;;4910409;29;20033;-86
2022/10/02 02:20:01;;;;;;;22.85;4.50;;;13.90;99.90;;;;;;4910224;29;20044;-86
2022/10/02 02:22:32;;;;;;;25.60;5.35;;;13.90;99.90;;;;;;4925681;29;20060;-85
2022/10/02 02:25:03;;;;;;;14.02;5.75;;;13.90;99.90;;;;;;4911789;29;20159;-86
2022/10/02 02:27:38;;;;;;;20.92;6.18;;;13.90;99.90;;;;;;4910251;29;20039;-86
2022/10/02 02:30:08;;;;;;;16.75;5.30;;;13.90;99.90;;;;;;4926184;29;20033;-85
2022/10/02 02:32:38;;;;;;;27.00;4.90;;;13.90;99.90;;;;;;4911288;29;20032;-86
2022/10/02 02:35:08;;;;;;;15.02;3.15;;;13.90;99.90;;;;;;4895062;29;20044;-86
2022/10/02 02:37:35;;;;;;;;;;;13.90;99.90;;;;;;4929561;29;20036;-86
2022/10/02 02:40:11;;;;;;;18.10;4.03;;;13.90;99.90;;;;;;4929045;29;19911;-86
2022/10/02 02:42:43;;;;;;;22.15;5.18;;;13.90;99.90;;;;;;4928844;29;20032;-86
2022/10/02 02:45:14;;;;;;;14.35;4.95;;;13.90;99.90;;;;;;4928588;29;20398;-86
2022/10/02 02:47:57;;;;;;;25.33;5.32;;;13.90;99.90;;;;;;4928551;29;20048;-85
2022/10/02 02:50:30;;;;;;;25.98;4.20;;;13.90;99.90;;;;;;4929025;29;20039;-85
2022/10/02 02:53:04;;;;;;;13.80;4.80;;;13.90;99.90;;;;;;4930124;29;20039;-86
2022/10/02 02:55:45;;;;;;;16.15;4.53;;;13.90;99.90;;;;;;4929317;29;20051;-85
2022/10/02 02:58:22;;;;;;;30.42;5.43;;;14.00;99.90;;;;;;4929802;29;20036;-86
2022/10/02 03:00:48;;;;;;;7.90;4.45;;;13.90;99.90;;;;;;4928603;29;20063;-85
2022/10/02 03:03:14;;;;;;;12.75;5.57;;;14.00;99.90;;;;;;4929919;29;20048;-86
2022/10/02 03:05:47;;;;;;;19.38;4.95;;;14.00;99.90;;;;;;4929368;29;20024;-86
2022/10/02 03:08:28;;;;;;;11.25;3.72;;;14.00;99.90;;;;;;4913151;29;20032;-86
2022/10/02 03:11:12;;;;;;;18.00;4.55;;;14.00;99.90;;;;;;4909474;29;20060;-86
2022/10/02 03:13:57;;;;;;;10.57;3.75;;;14.00;99.90;;;;;;4910755;29;20383;-85
2022/10/02 03:16:32;;;;;;;13.88;4.15;;;13.90;99.90;;;;;;4919489;29;20036;-86
2022/10/02 03:19:32;;;;;;;9.88;3.08;;;14.00;99.90;;;;;;4928369;29;20044;-86
2022/10/02 03:22:26;;;;;;;13.50;3.85;;;14.00;99.90;;;;;;4928093;29;20060;-86
2022/10/02 03:25:30;;;;;;;15.35;6.68;;;14.00;99.90;;;;;;4929515;29;20032;-86
2022/10/02 03:28:23;;;;;;;7.38;3.40;;;14.00;99.90;;;;;;4929502;29;20099;-85
2022/10/02 03:30:53;;;;;;;11.10;4.70;;;13.90;99.90;;;;;;4929626;29;20049;-86
2022/10/02 03:33:21;;;;;;;10.35;3.17;;;14.00;99.90;;;;;;4928077;29;20028;-86
2022/10/02 03:35:49;;;;;;;7.65;4.03;;;14.00;99.90;;;;;;4929186;29;20125;-86
2022/10/02 03:38:16;;;;;;;20.23;5.10;;;14.00;99.90;;;;;;4929342;29;20036;-85
2022/10/02 03:40:43;;;;;;;9.50;4.22;;;14.00;99.90;;;;;;4928257;29;20079;-86
2022/10/02 03:43:20;;;;;;;10.27;3.47;;;14.00;99.90;;;;;;4927831;29;20032;-85
2022/10/02 03:45:46;;;;;;;20.88;6.03;;;14.00;99.90;;;;;;4943927;29;20032;-86
2022/10/02 03:48:12;;;;;;;18.73;5.07;;;14.00;99.90;;;;;;4943977;29;20486;-86
2022/10/02 03:50:37;;;;;;;12.68;3.70;;;14.00;99.90;;;;;;4929438;29;20032;-85
2022/10/02 03:53:14;;;;;;;14.55;3.60;;;14.00;99.90;;;;;;4927753;29;20059;-85
2022/10/02 03:55:45;;;;;;;23.25;6.57;;;14.00;99.90;;;;;;4927579;29;20028;-85
2022/10/02 03:58:15;;;;;;;12.93;6.93;;;14.00;99.90;;;;;;4912039;29;20032;-85
2022/10/02 04:00:50;;;;;;;15.88;5.30;;;14.00;99.90;;;;;;4928041;29;20031;-86
2022/10/02 04:03:44;;;;;;;8.80;4.22;;;14.00;99.90;;;;;;4927620;29;20028;-85
2022/10/02 04:06:24;;;;;;;18.10;5.57;;;14.00;99.90;;;;;;4927994;29;20103;-85
2022/10/02 04:09:13;;;;;;;17.52;4.75;;;14.00;99.90;;;;;;4912377;29;20043;-85
2022/10/02 04:11:42;;;;;;;17.67;3.95;;;14.00;99.90;;;;;;4928517;29;20478;-85
2022/10/02 04:14:19;;;;;;;16.13;5.00;;;14.00;99.90;;;;;;4926699;29;20029;-86
2022/10/02 04:17:08;;;;;;;19.25;5.78;;;14.00;99.90;;;;;;4912573;29;20033;-85
2022/10/02 04:19:47;;;;;;;23.90;4.65;;;13.90;99.90;;;;;;4913513;29;20047;-85
2022/10/02 04:22:20;;;;;;;22.90;5.00;;;14.00;99.90;;;;;;4914427;29;20052;-85
2022/10/02 04:24:58;;;;;;;25.42;6.43;;;14.00;99.90;;;;;;4931465;29;20028;-85
2022/10/02 04:27:46;;;;;;;20.40;5.22;;;14.00;99.90;;;;;;4931331;29;20056;-85
2022/10/02 04:30:18;;;;;;;14.50;3.35;;;14.10;99.90;;;;;;4931435;29;20036;-85
2022/10/02 04:32:46;;;;;;;17.98;4.43;;;14.10;99.90;;;;;;4930864;29;20028;-85
2022/10/02 04:36:02;;;;;;;19.10;5.30;;;14.10;99.90;;;;;;4931060;29;20118;-85
2022/10/02 04:38:53;;;;;;;17.35;5.07;;;14.00;99.90;;;;;;4922927;29;20055;-85
2022/10/02 04:42:04;;;;;;;14.32;5.25;;;14.10;99.90;;;;;;4931084;29;20035;-85
2022/10/02 04:44:36;;;;;;;7.93;3.38;;;14.10;99.90;;;;;;4911867;29;20032;-85
2022/10/02 04:47:29;;;;;;;12.75;3.92;;;14.10;99.90;;;;;;4912210;29;20039;-85
2022/10/02 04:50:20;;;;;;;16.92;4.05;;;14.10;99.90;;;;;;4912058;29;20982;-86
2022/10/02 04:53:11;;;;;;;17.27;4.63;;;14.10;99.90;;;;;;4918538;29;20035;-86
2022/10/02 04:56:07;;;;;;;18.85;5.00;;;14.10;99.90;;;;;;4932010;29;20071;-85
2022/10/02 04:59:02;;;;;;;9.63;3.78;;;14.10;99.90;;;;;;4914947;29;20044;-85
2022/10/02 05:01:56;;;;;;;13.73;5.28;;;14.10;99.90;;;;;;4930491;29;20039;-85
2022/10/02 05:04:37;;;;;;;13.25;4.80;;;14.10;99.90;;;;;;4931979;29;20115;-85
2022/10/02 05:07:26;;;;;;;15.82;4.28;;;14.10;99.90;;;;;;4931937;29;20032;-85
2022/10/02 05:10:16;;;;;;;13.40;5.13;;;14.10;99.90;;;;;;4930473;29;20103;-85
2022/10/02 05:12:58;;;;;;;10.00;4.25;;;14.10;99.90;;;;;;4913422;29;20036;-85
2022/10/02 05:15:56;;;;;;;21.77;3.63;;;14.10;99.90;;;;;;4931350;29;20039;-85
2022/10/02 05:18:28;;;;;;;17.10;3.72;;;14.10;99.90;;;;;;4929705;29;20114;-86
2022/10/02 05:21:11;;;;;;;12.70;4.32;;;14.10;99.90;;;;;;4914107;29;20569;-85
2022/10/02 05:23:59;;;;;;;14.13;4.82;;;14.10;99.90;;;;;;4930227;29;20040;-85
2022/10/02 05:26:27;;;;;;;8.93;4.00;;;14.10;99.90;;;;;;4931525;29;20056;-86
2022/10/02 05:29:19;;;;;;;11.20;3.80;;;14.10;99.90;;;;;;4931122;29;20017;-85
2022/10/02 05:32:16;;;;;;;14.35;4.40;;;14.10;99.90;;;;;;4930075;29;20088;-85
2022/10/02 05:34:45;;;;;;;7.65;4.20;;;14.10;99.90;;;;;;4931317;29;20032;-84
2022/10/02 05:37:31;;;;;;;14.80;4.13;;;14.10;99.90;;;;;;4930179;29;20047;-85
2022/10/02 05:40:22;;;;;;;12.88;3.72;;;14.10;99.90;;;;;;4931042;29;20071;-85
2022/10/02 05:42:54;;;;;;;12.18;4.65;;;14.10;99.90;;;;;;4942150;29;20025;-85
2022/10/02 05:45:20;;;;;;;7.03;2.75;;;14.10;99.90;;;;;;4929108;29;20067;-85
2022/10/02 05:47:47;;;;;;;11.98;4.35;;;14.10;99.90;;;;;;4923946;29;20026;-84
2022/10/02 05:50:34;;;;;;;6.05;3.10;;;14.10;99.90;;;;;;4908715;29;20051;-85
2022/10/02 05:53:09;;;;;;;15.43;4.60;;;14.10;99.90;;;;;;4921697;29;20035;-85
2022/10/02 05:55:47;;;;;;;11.80;3.88;;;14.10;99.90;;;;;;4913164;29;20040;-85
2022/10/02 05:58:22;;;;;;;6.18;2.97;;;14.10;99.90;;;;;;4929497;29;20032;-85
2022/10/02 06:01:02;;;;;;;13.02;3.63;;;14.10;99.90;;;;;;4919142;29;20047;-84
2022/10/02 06:03:48;;;;;;;14.10;3.75;;;14.10;99.90;;;;;;4918597;29;20482;-84
2022/10/02 06:06:24;;;;;;;14.65;5.82;;;14.10;99.90;;;;;;4929204;29;20028;-84
2022/10/02 06:09:14;;;;;;;6.75;4.03;;;14.10;99.90;;;;;;4913510;29;20024;-85
2022/10/02 06:11:51;;;;;;;8.40;3.60;;;14.10;99.90;;;;;;4929179;29;20020;-85
2022/10/02 06:14:31;;;;;;;8.32;4.53;;;14.10;99.90;;;;;;4930231;29;20036;-84
2022/10/02 06:17:06;;;;;;;8.73;4.33;;;14.10;99.90;;;;;;4913505;29;20044;-85
2022/10/02 06:19:54;;;;;;;6.57;4.30;;;14.20;99.90;;;;;;4913108;29;20031;-84
2022/10/02 06:22:25;;;;;;;12.30;4.30;;;14.10;99.90;;;;;;4946774;29;20100;-84
2022/10/02 06:25:07;;;;;;;10.55;3.80;;;14.10;99.90;;;;;;4929184;29;20111;-84
2022/10/02 06:28:05;;;;;;;5.70;3.33;;;14.10;99.90;;;;;;4929023;29;20052;-85
2022/10/02 06:30:36;;;;;;;7.00;3.35;;;14.20;99.90;;;;;;4928560;29;20028;-85
2022/10/02 06:33:02;;;;;;;10.40;3.15;;;14.20;99.90;;;;;;4923078;29;20039;-85
2022/10/02 06:35:41;;;;;;;10.10;4.03;;;14.20;99.90;;;;;;4912976;29;20075;-84
2022/10/02 06:38:25;;;;;;;12.20;3.45;;;14.20;99.90;;;;;;4928610;29;20072;-84
2022/10/02 06:41:07;;;;;;;7.18;2.88;;;14.20;99.90;;;;;;4924333;29;20104;-85
2022/10/02 06:43:43;;;;;;;7.55;3.42;;;14.20;99.90;;;;;;4921251;29;20035;-84
2022/10/02 06:46:38;;;;;;;8.98;2.42;;;14.20;99.90;;;;;;4928411;29;20048;-84
2022/10/02 06:49:13;;;;;;;8.02;3.63;;;14.20;99.90;;;;;;4916770;29;20032;-85
2022/10/02 06:52:13;;;;;;;9.68;2.88;;;14.20;99.90;;;;;;4927966;29;20043;-84
2022/10/02 06:54:48;;;;;;;4.05;3.42;;;14.20;99.90;;;;;;4927337;29;20036;-84
2022/10/02 06:57:29;;;;;;;3.92;3.53;;;14.20;99.90;;;;;;4911968;29;20024;-84
2022/10/02 07:00:15;;;;;;;9.80;4.88;;;14.20;99.90;;;;;;4927684;29;20043;-84
2022/10/02 07:02:50;;;;;;;7.47;3.50;;;14.20;99.90;;;;;;4928667;29;20447;-84
2022/10/02 07:05:31;;;;;;;7.65;4.00;;;14.20;99.90;;;;;;4920291;29;20056;-84
2022/10/02 07:08:03;;;;;;;10.68;3.30;;;14.20;99.90;;;;;;4925665;29;20391;-85
2022/10/02 07:10:42;;;;;;;7.78;2.63;;;14.20;99.90;;;;;;4927253;29;20459;-84
2022/10/02 07:13:27;;;;;;;6.80;2.00;;;14.20;99.90;;;;;;4928110;29;20036;-84
2022/10/02 07:16:07;;;;;;;6.03;3.05;;;14.20;99.90;;;;;;4924996;29;20063;-84
2022/10/02 07:18:52;;;;;;;16.90;5.90;;;14.20;99.90;;;;;;4912306;29;20043;-84
2022/10/02 07:22:00;;;;;;;6.90;2.72;;;14.20;99.90;;;;;;4927196;29;20072;-84
2022/10/02 07:24:45;;;;;;;10.65;3.55;;;14.20;99.90;;;;;;4926731;29;20071;-84
2022/10/02 07:27:18;;;;;;;9.85;3.33;;;14.20;99.90;;;;;;4926160;29;20096;-83
2022/10/02 07:29:46;;;;;;;7.45;4.07;;;14.20;99.90;;;;;;4926782;29;20024;-87
2022/10/02 07:32:18;;;;;;;7.65;3.05;;;14.20;99.90;;;;;;4927877;29;20028;-85
2022/10/02 07:35:12;;;;;;;5.50;2.92;;;14.20;99.90;;;;;;4911902;29;20107;-85
2022/10/02 07:38:03;;;;;;;11.18;4.60;;;14.10;99.90;;;;;;4928139;29;20036;-86
2022/10/02 07:40:33;;;;;;;7.82;3.15;;;14.10;99.90;;;;;;4928979;29;20087;-86
2022/10/02 07:43:02;;;;;;;;;;;14.10;99.90;;;;;;4916284;29;20043;-86
2022/10/02 07:45:40;;;;;;;5.10;3.13;;;14.10;99.90;;;;;;4916007;29;19949;-85
2022/10/02 07:48:31;;;;;;;8.00;3.67;;;14.10;99.90;;;;;;4931813;29;20402;-86
2022/10/02 07:54:24;;;;;;;8.60;3.08;;;14.10;99.90;;;;;;4937975;29;20040;-87
2022/10/02 07:56:52;;;;;;;9.40;2.63;;;14.10;99.90;;;;;;4928421;29;20032;-87
2022/10/02 07:59:18;;;;;;;12.38;2.40;;;14.10;99.90;;;;;;4932221;29;20044;-86
2022/10/02 08:01:46;;;;;;;7.43;2.38;;;14.10;99.90;;;;;;4932044;29;20024;-86
2022/10/02 08:04:18;;;;;;;12.27;3.80;;;14.10;99.90;;;;;;4931376;29;20056;-86
2022/10/02 08:06:46;;;;;;;9.73;2.70;;;14.10;99.90;;;;;;4931650;29;20491;-86
2022/10/02 08:09:26;;;;;;;5.60;2.38;;;14.10;99.90;;;;;;4932460;29;20033;-86
2022/10/02 08:12:15;;;;;;;8.50;3.78;;;14.10;99.90;;;;;;4943056;29;20025;-86
2022/10/02 08:14:45;;;;;;;8.27;3.70;;;14.10;99.90;;;;;;4928247;29;20039;-85
2022/10/02 08:17:47;;;;;;;4.47;2.10;;;14.10;99.90;;;;;;4931080;29;20109;-86
2022/10/02 08:20:19;;;;;;;6.53;3.45;;;14.10;99.90;;;;;;4881428;29;20037;-86
2022/10/02 08:22:50;;;;;;;7.75;2.83;;;14.20;99.90;;;;;;4923180;29;20052;-86
2022/10/02 08:25:24;;;;;;;8.80;3.60;;;14.20;99.90;;;;;;4930238;29;20032;-86
2022/10/02 08:28:10;;;;;;;10.63;4.50;;;14.20;99.90;;;;;;4932263;29;20024;-86
2022/10/02 08:30:37;;;;;;;2.63;2.40;;;14.20;99.90;;;;;;4931418;29;20029;-86
2022/10/02 08:33:21;;;;;;;6.20;2.83;;;14.30;99.90;;;;;;4930964;29;20035;-85
2022/10/02 08:36:08;;;;;;;9.98;2.28;;;14.20;99.90;;;;;;4926255;29;20059;-87
2022/10/02 08:38:45;;;;;;;9.27;2.67;;;14.20;99.90;;;;;;4905789;29;20036;-89
2022/10/02 08:41:36;;;;;;;6.18;2.95;;;14.30;99.90;;;;;;4918093;29;20029;-88
2022/10/02 08:44:20;;;;;;;11.43;4.47;;;14.30;99.90;;;;;;4930725;29;20024;-88
2022/10/02 08:47:27;;;;;;;5.43;3.95;;;14.30;99.90;;;;;;4930810;29;20039;-88
2022/10/02 08:50:07;;;;;;;5.50;2.50;;;14.30;99.90;;;;;;4931645;29;20057;-88
2022/10/02 08:53:07;;;;;;;9.68;4.40;;;14.40;99.90;;;;;;4914237;29;20047;-89
2022/10/02 08:55:52;;;;;;;7.50;2.97;;;14.40;99.90;;;;;;4907894;29;20036;-86
2022/10/02 08:58:32;;;;;;;5.32;2.28;;;14.50;99.90;;;;;;4930675;29;20040;-86
2022/10/02 09:01:34;;;;;;;11.38;3.90;;;14.50;99.90;;;;;;4930725;29;20040;-86
2022/10/02 09:04:30;;;;;;;6.45;4.45;;;14.50;99.90;;;;;;4931761;29;20038;-86
2022/10/02 09:07:02;;;;;;;4.72;3.03;;;14.50;99.90;;;;;;4914838;29;20028;-86
2022/10/02 09:09:47;;;;;;;11.38;3.30;;;14.50;99.90;;;;;;4930555;29;20103;-86
2022/10/02 09:12:36;;;;;;;5.40;3.33;;;14.50;99.90;;;;;;4930036;29;20451;-86
2022/10/02 09:15:21;;;;;;;5.82;2.25;;;14.50;99.90;;;;;;4930169;29;20024;-86
2022/10/02 09:18:20;;;;;;;4.68;3.28;;;14.60;99.90;;;;;;4929846;29;20044;-86
2022/10/02 09:21:05;;;;;;;6.72;3.38;;;14.60;99.90;;;;;;4925765;29;20077;-86
2022/10/02 09:24:16;;;;;;;4.68;3.38;;;14.60;99.90;;;;;;4910823;29;20047;-86
2022/10/02 09:26:42;;;;;;;9.05;5.22;;;14.70;99.90;;;;;;4912557;29;20029;-86
2022/10/02 09:29:47;;;;;;;3.70;3.03;;;14.70;99.90;;;;;;4911509;29;20028;-86
2022/10/02 09:32:21;;;;;;;22.50;5.18;;;14.70;99.90;;;;;;4915286;29;20036;-86
2022/10/02 09:35:26;;;;;;;10.02;5.55;;;14.80;99.90;;;;;;4929968;29;20500;-86
2022/10/02 09:38:04;;;;;;;13.60;4.38;;;14.90;99.90;;;;;;4929489;29;20043;-85
2022/10/02 09:41:04;;;;;;;7.50;3.92;;;14.80;99.90;;;;;;4931210;29;20044;-85
2022/10/02 09:43:50;;;;;;;8.93;5.40;;;14.80;99.90;;;;;;4914121;29;20032;-86
2022/10/02 09:46:54;;;;;;;5.93;4.72;;;14.90;99.90;;;;;;4929861;29;20028;-86
2022/10/02 09:50:00;;;;;;;9.23;6.07;;;14.90;99.90;;;;;;4913757;29;20031;-86
2022/10/02 09:53:04;;;;;;;8.30;4.47;;;15.00;99.90;;;;;;4926753;29;20109;-86
2022/10/02 09:55:48;;;;;;;13.57;5.55;;;15.10;99.90;;;;;;4925725;29;20039;-86
2022/10/02 09:58:38;;;;;;;6.43;5.38;;;15.10;99.90;;;;;;4930045;29;20028;-85
2022/10/02 10:01:19;;;;;;;11.45;4.95;;;15.10;99.90;;;;;;4929861;29;20126;-86
2022/10/02 10:04:23;;;;;;;12.73;7.72;;;15.00;99.90;;;;;;4929234;29;20035;-86
2022/10/02 10:07:01;;;;;;;6.07;4.57;;;15.00;99.90;;;;;;4913542;29;20052;-86
2022/10/02 10:10:04;;;;;;;6.78;5.30;;;15.10;99.90;;;;;;4930985;29;20047;-86
2022/10/02 10:12:54;;;;;;;14.48;7.40;;;15.10;99.90;;;;;;4929476;29;20466;-85
2022/10/02 10:16:00;;;;;;;15.23;6.63;;;15.10;99.90;;;;;;4930806;29;20055;-86
2022/10/02 10:18:53;;;;;;;13.38;6.93;;;15.10;99.90;;;;;;4930480;29;20072;-86
2022/10/02 10:21:47;;;;;;;10.70;6.35;;;15.10;99.90;;;;;;4913343;29;20080;-85
2022/10/02 10:24:24;;;;;;;8.50;6.15;;;15.10;99.90;;;;;;4930370;29;20032;-85
2022/10/02 10:27:28;;;;;;;11.88;5.65;;;15.10;99.90;;;;;;4929327;29;20039;-85
2022/10/02 10:30:13;;;;;;;9.82;6.65;;;15.10;99.90;;;;;;4912861;29;20044;-86
2022/10/02 10:33:20;;;;;;;15.60;6.78;;;15.10;99.90;;;;;;4913038;29;20032;-85
2022/10/02 10:40:02;;;;;;;11.15;7.45;;;15.10;99.90;;;;;;4925970;29;20041;-85
2022/10/02 10:42:58;;;;;;;11.63;5.97;;;15.00;99.90;;;;;;4904878;29;20398;-86
2022/10/02 10:45:31;;;;;;;12.35;6.43;;;15.00;99.90;;;;;;4928899;29;20036;-86
2022/10/02 10:48:16;;;;;;;6.30;5.80;;;15.10;99.90;;;;;;4930182;29;20036;-86
2022/10/02 10:50:54;;;;;;;15.05;6.18;;;15.10;99.90;;;;;;4912521;29;20028;-86
2022/10/02 10:54:08;;;;;;;10.63;6.28;;;15.10;99.90;;;;;;4927197;29;20035;-86
2022/10/02 10:56:45;;;;;;;14.20;8.18;;;15.10;99.90;;;;;;4923443;29;20032;-86
2022/10/02 10:59:32;;;;;;;7.45;6.05;;;15.10;99.90;;;;;;4926567;29;20194;-86
2022/10/02 11:02:17;;;;;;;7.03;6.22;;;15.10;99.90;;;;;;4928439;29;20040;-85
2022/10/02 11:05:01;;;;;;;9.63;7.13;;;15.10;99.90;;;;;;4912602;29;20051;-86
2022/10/02 11:07:39;;;;;;;16.55;8.20;;;15.10;99.90;;;;;;4939430;29;20064;-86
2022/10/02 11:10:08;;;;;;;15.10;7.53;;;15.10;99.90;;;;;;4912607;29;20537;-86
2022/10/02 11:13:08;;;;;;;13.73;7.70;;;15.10;99.90;;;;;;4912910;29;20028;-87
2022/10/02 11:16:20;;;;;;;13.32;6.78;;;15.10;99.90;;;;;;4898434;29;20024;-86
2022/10/02 11:19:25;;;;;;;7.53;6.80;;;15.10;99.90;;;;;;4897903;29;20060;-86
2022/10/02 11:22:02;;;;;;;12.20;7.35;;;15.10;99.90;;;;;;4852665;29;20079;-86
2022/10/02 11:24:44;;;;;;;12.07;7.00;;;15.10;99.90;;;;;;4884964;29;20040;-85
2022/10/02 11:27:25;;;;;;;17.25;9.85;;;15.10;99.90;;;;;;4889427;29;20389;-87
2022/10/02 11:30:31;;;;;;;16.83;7.97;;;15.30;99.90;;;;;;4927617;29;20043;-87
2022/10/02 11:33:29;;;;;;;10.57;6.90;;;15.40;99.90;;;;;;4916457;29;20101;-87
2022/10/02 11:36:04;;;;;;;18.45;9.30;;;15.40;99.90;;;;;;4911584;29;20031;-87
2022/10/02 11:38:34;;;;;;;13.07;9.27;;;15.50;99.90;;;;;;4929097;29;20032;-88
2022/10/02 11:41:24;;;;;;;16.25;9.13;;;15.60;99.90;;;;;;4928093;29;20028;-89
2022/10/02 11:44:23;;;;;;;18.20;8.48;;;15.70;99.90;;;;;;4928298;29;20056;-89
2022/10/02 11:46:55;;;;;;;9.68;8.52;;;15.70;99.90;;;;;;4918512;29;20028;-89
2022/10/02 11:49:42;;;;;;;19.88;9.77;;;15.70;99.90;;;;;;4925103;29;20036;-88
2022/10/02 11:52:40;;;;;;;16.08;8.45;;;15.80;99.90;;;;;;4924148;29;20045;-89
2022/10/02 11:55:36;;;;;;;9.02;6.82;;;15.80;99.90;;;;;;4916785;29;20038;-89
2022/10/02 11:58:17;;;;;;;14.63;7.57;;;15.80;99.90;;;;;;4927890;29;20028;-89
2022/10/02 12:01:06;;;;;;;10.80;7.97;;;15.80;99.90;;;;;;4927776;29;20036;-89
2022/10/02 12:03:57;;;;;;;11.53;9.30;;;15.80;99.90;;;;;;4899337;29;20024;-89
2022/10/02 12:06:42;;;;;;;16.17;9.10;;;15.80;99.90;;;;;;4926779;29;20032;-87
2022/10/02 12:09:57;;;;;;;12.30;7.80;;;15.90;99.90;;;;;;4927894;29;20032;-87
2022/10/02 12:13:16;;;;;;;21.63;7.68;;;15.90;99.90;;;;;;4916887;29;20032;-87
2022/10/02 12:16:03;;;;;;;17.85;7.20;;;15.90;99.90;;;;;;4905775;29;20048;-87
2022/10/02 12:18:51;;;;;;;10.82;7.93;;;16.00;99.90;;;;;;4941710;29;20115;-90
2022/10/02 12:27:35;;;;;;;11.57;7.20;;;16.90;99.90;;;;;;4927657;29;20032;-89
2022/10/02 12:30:10;;;;;;;11.95;6.82;;;17.10;99.90;;;;;;4930925;29;20099;-88
2022/10/02 12:33:07;;;;;;;10.00;7.20;;;17.20;99.90;;;;;;4931643;29;20096;-88
2022/10/02 12:35:41;;;;;;;8.88;6.30;;;17.20;99.90;;;;;;4932652;29;20397;-88
2022/10/02 12:38:43;;;;;;;11.07;7.07;;;17.20;99.90;;;;;;4915509;29;20048;-88
2022/10/02 12:41:34;;;;;;;10.43;6.68;;;17.30;99.90;;;;;;4931942;29;20039;-89
2022/10/02 12:44:24;;;;;;;9.52;5.32;;;17.30;99.90;;;;;;4931178;29;20028;-88
2022/10/02 12:47:08;;;;;;;8.10;5.80;;;17.30;99.90;;;;;;4931259;29;20105;-89
2022/10/02 12:49:54;;;;;;;10.05;4.95;;;17.40;99.90;;;;;;4915438;29;20063;-89
2022/10/02 12:52:39;;;;;;;9.77;5.15;;;17.40;99.90;;;;;;4915435;29;20035;-89
2022/10/02 12:55:08;;;;;;;16.13;6.38;;;17.30;99.90;;;;;;4930734;29;20056;-89
2022/10/02 12:57:51;;;;;;;6.68;5.03;;;17.30;99.90;;;;;;4915165;29;20036;-89
2022/10/02 13:00:45;;;;;;;11.02;6.15;;;17.30;99.90;;;;;;4930752;29;20055;-89
2022/10/02 13:03:43;;;;;;;7.90;5.95;;;17.30;99.90;;;;;;4923439;29;20032;-89
2022/10/02 13:06:36;;;;;;;8.13;5.32;;;17.30;99.90;;;;;;4932297;29;20032;-89
2022/10/02 13:09:23;;;;;;;10.38;5.68;;;17.30;99.90;;;;;;4914928;29;20060;-89
2022/10/02 13:12:01;;;;;;;12.60;6.28;;;17.30;99.90;;;;;;4914777;29;20171;-89
2022/10/02 13:14:40;;;;;;;7.72;5.22;;;17.30;99.90;;;;;;4930819;29;20035;-90
2022/10/02 13:17:15;;;;;;;6.43;5.93;;;17.30;99.90;;;;;;4930845;29;20040;-90
2022/10/02 13:19:52;;;;;;;10.00;5.50;;;17.30;99.90;;;;;;4930871;29;20509;-88
2022/10/02 13:22:33;;;;;;;7.68;6.07;;;17.30;99.90;;;;;;4914468;29;20048;-89
2022/10/02 13:25:34;;;;;;;12.63;5.43;;;17.30;99.90;;;;;;4930313;29;20043;-90
2022/10/02 13:28:07;;;;;;;10.98;6.10;;;17.20;99.90;;;;;;4918663;29;20024;-89
2022/10/02 13:30:42;;;;;;;8.80;5.97;;;17.30;99.90;;;;;;4931739;29;20044;-89
2022/10/02 13:33:20;;;;;;;10.48;6.25;;;17.20;99.90;;;;;;4930090;29;20039;-89
2022/10/02 13:36:09;;;;;;;7.07;5.28;;;17.20;99.90;;;;;;4931352;29;20566;-88
2022/10/02 13:38:59;;;;;;;9.45;5.43;;;17.40;99.90;;;;;;4931990;29;20070;-89
2022/10/02 13:41:48;;;;;;;;;;;17.20;99.90;;;;;;4930627;29;20039;-89
2022/10/02 13:44:23;;;;;;;9.18;5.97;;;17.10;99.90;;;;;;4930995;29;19911;-87
2022/10/02 13:47:11;;;;;;;12.75;6.25;;;17.10;99.90;;;;;;4931404;29;20079;-90
2022/10/02 13:49:56;;;;;;;11.82;6.53;;;17.10;99.90;;;;;;4929960;29;20032;-89
2022/10/02 13:52:36;;;;;;;6.00;5.38;;;17.10;99.90;;;;;;4914275;29;20103;-89
2022/10/02 13:55:29;;;;;;;8.23;5.70;;;17.10;99.90;;;;;;4914229;29;20032;-90
2022/10/02 13:58:36;;;;;;;7.35;5.28;;;17.20;99.90;;;;;;4929524;29;20055;-89
2022/10/02 14:01:24;;;;;;;6.60;4.82;;;17.20;99.90;;;;;;4929482;29;20052;-89
2022/10/02 14:04:21;;;;;;;4.38;3.70;;;17.20;99.90;;;;;;4930034;29;20103;-89
2022/10/02 14:07:02;;;;;;;9.55;3.67;;;17.20;99.90;;;;;;4931086;29;20038;-89
2022/10/02 14:09:56;;;;;;;17.77;4.70;;;17.10;99.90;;;;;;4929644;29;20036;-90
2022/10/02 14:12:27;;;;;;;11.82;5.05;;;17.10;99.90;;;;;;4926800;29;20079;-89
2022/10/02 14:15:10;;;;;;;16.88;5.55;;;17.10;99.90;;;;;;4929490;29;20032;-89